Time;durP1;ratioP1;P1;durP2;ratioP2;P2;SDS_P1;SDS_P2;PMS_P1;PMS_P2;Temp;Humidity;BMP_temperature;BMP_pressure;BME280_temperature;BME280_humidity;BME280_pressure;Samples;Min_cycle;Max_cycle;Signal;HPM_P1;HPM_P2
2023/07/10 00:02:14;;;;;;;5.73;3.70;;;;;;;21.41;60.69;97344.41;5034953;28;20629;-79
2023/07/10 00:05:35;;;;;;;4.70;3.50;;;;;;;21.11;61.51;97346.94;5067423;28;20243;-80
2023/07/10 00:08:56;;;;;;;7.13;3.33;;;;;;;21.17;61.13;97325.38;5053319;28;20202;-78
2023/07/10 00:12:17;;;;;;;5.30;3.60;;;;;;;20.85;62.12;97335.91;5070071;28;20228;-84
2023/07/10 00:15:38;;;;;;;6.07;3.27;;;;;;;21.06;61.48;97334.19;5066723;28;20206;-80
2023/07/10 00:19:00;;;;;;;3.93;3.20;;;;;;;21.25;61.68;97338.72;5033693;28;20190;-80
2023/07/10 00:22:21;;;;;;;3.80;3.50;;;;;;;21.18;60.87;97324.41;5068174;28;20681;-80
2023/07/10 00:25:42;;;;;;;4.47;3.67;;;;;;;21.34;61.34;97354.63;5049903;28;20229;-80
2023/07/10 00:29:03;;;;;;;6.17;3.80;;;;;;;21.27;61.35;97342.09;5048683;28;20324;-80
2023/07/10 00:32:30;;;;;;;3.70;3.30;;;;;;;21.21;61.18;97337.31;5050016;28;20282;-81
2023/07/10 00:35:52;;;;;;;5.47;3.60;;;;;;;21.01;62.04;97337.16;5067516;28;20665;-80
2023/07/10 00:39:13;;;;;;;5.90;3.53;;;;;;;21.17;61.78;97333.25;5032359;28;20772;-82
2023/07/10 00:42:34;;;;;;;5.83;3.50;;;;;;;21.22;62.40;97344.28;5068258;28;20768;-82
2023/07/10 00:45:57;;;;;;;4.13;3.70;;;;;;;21.05;62.53;97330.72;5051780;28;20262;-82
2023/07/10 00:49:20;;;;;;;5.33;3.30;;;;;;;21.08;62.37;97344.59;5068818;28;20676;-83
2023/07/10 00:52:46;;;;;;;4.93;3.60;;;;;;;20.96;62.96;97341.13;5049580;28;20678;-82
2023/07/10 00:56:14;;;;;;;7.10;3.80;;;;;;;20.70;63.61;97343.25;5032871;28;20197;-82
2023/07/10 00:59:35;;;;;;;4.57;3.47;;;;;;;20.46;64.68;97334.72;5049623;28;20251;-82
2023/07/10 01:02:56;;;;;;;3.80;3.27;;;;;;;20.16;65.54;97334.50;5032368;28;20208;-79
2023/07/10 01:06:18;;;;;;;7.57;3.97;;;;;;;20.08;65.64;97335.13;5048818;28;20236;-79
2023/07/10 01:09:40;;;;;;;5.87;4.17;;;;;;;20.32;64.83;97329.72;5049449;28;20228;-80
2023/07/10 01:13:02;;;;;;;5.43;3.93;;;;;;;20.61;64.41;97348.47;5032571;28;20267;-80
2023/07/10 01:16:23;;;;;;;4.43;3.50;;;;;;;20.40;64.92;97344.91;5067311;28;20279;-80
2023/07/10 01:19:45;;;;;;;7.90;3.73;;;;;;;20.40;65.32;97340.50;5034228;28;20280;-82
2023/07/10 01:23:06;;;;;;;7.53;3.97;;;;;;;20.53;64.92;97356.94;5066061;28;20193;-82
2023/07/10 01:26:36;;;;;;;5.23;3.83;;;;;;;20.01;66.02;97341.00;5031592;28;20232;-81
2023/07/10 01:29:43;;;;;;;6.70;4.20;;;;;;;19.64;67.14;97344.81;5032421;28;20204;-83
2023/07/10 01:33:04;;;;;;;5.70;4.00;;;;;;;19.48;67.95;97345.97;5048267;28;20691;-83
2023/07/10 01:36:24;;;;;;;5.20;3.80;;;;;;;19.61;66.60;97345.03;5048254;28;20556;-81
2023/07/10 01:39:14;;;;;;;5.50;3.53;;;;;;;19.67;66.27;97360.31;5034308;28;20210;-82
2023/07/10 01:42:35;;;;;;;4.43;4.00;;;;;;;19.87;65.77;97346.47;5066779;28;20255;-81
2023/07/10 01:45:59;;;;;;;6.00;3.50;;;;;;;20.11;65.25;97357.72;5033705;28;20328;-80
2023/07/10 01:49:20;;;;;;;4.50;3.70;;;;;;;20.13;64.68;97353.16;5031217;28;20204;-77
2023/07/10 01:52:41;;;;;;;5.87;4.00;;;;;;;19.80;65.97;97353.19;5065968;28;20266;-82
2023/07/10 01:56:02;;;;;;;4.23;3.67;;;;;;;19.82;65.76;97343.38;5031976;28;20204;-80
2023/07/10 01:59:23;;;;;;;5.57;3.90;;;;;;;20.13;64.93;97358.44;5048431;28;20200;-81
2023/07/10 02:02:44;;;;;;;6.30;4.03;;;;;;;20.12;65.21;97360.22;5065846;28;20189;-82
2023/07/10 02:06:05;;;;;;;5.70;3.83;;;;;;;20.21;65.27;97353.44;5048032;28;20233;-82
2023/07/10 02:09:26;;;;;;;4.30;3.90;;;;;;;20.11;64.49;97334.03;5036894;28;20242;-78
2023/07/10 02:12:47;;;;;;;4.87;4.40;;;;;;;20.18;64.19;97353.63;5037660;28;20196;-81
2023/07/10 02:16:08;;;;;;;4.90;4.17;;;;;;;20.19;64.32;97352.69;5053022;28;20316;-79
2023/07/10 02:19:30;;;;;;;4.43;3.70;;;;;;;20.16;64.22;97358.16;5048497;28;20700;-83
2023/07/10 02:23:11;;;;;;;7.73;4.60;;;;;;;20.12;64.17;97348.84;5066629;28;20338;-83
2023/07/10 02:26:31;;;;;;;5.87;4.20;;;;;;;20.37;63.07;97345.97;5047168;28;20374;-83
2023/07/10 02:29:52;;;;;;;4.30;3.67;;;;;;;20.40;63.61;97351.00;5033129;28;20196;-79
2023/07/10 02:33:13;;;;;;;5.73;3.80;;;;;;;20.23;64.72;97349.72;5016680;28;20787;-81
2023/07/10 02:36:35;;;;;;;7.37;4.07;;;;;;;20.22;65.36;97344.56;5066199;28;20239;-82
2023/07/10 02:39:57;;;;;;;5.67;3.53;;;;;;;19.89;67.19;97353.28;5046988;28;20197;-79
2023/07/10 02:43:18;;;;;;;6.03;3.60;;;;;;;19.76;68.08;97359.63;5066121;28;20291;-81
2023/07/10 02:46:38;;;;;;;6.80;4.40;;;;;;;19.68;67.85;97357.56;5032781;28;20223;-80
2023/07/10 02:50:01;;;;;;;8.33;4.13;;;;;;;19.42;68.41;97370.09;5064779;28;20578;-82
2023/07/10 02:53:23;;;;;;;7.87;4.73;;;;;;;19.37;68.57;97374.84;5047638;28;20242;-80
2023/07/10 02:56:44;;;;;;;7.23;4.93;;;;;;;18.92;69.77;97372.97;5031187;28;20262;-80
2023/07/10 03:00:08;;;;;;;5.30;4.50;;;;;;;18.82;70.06;97374.63;5047467;28;20713;-79
2023/07/10 03:03:29;;;;;;;7.30;4.80;;;;;;;18.83;70.03;97376.31;5032760;28;20249;-78
2023/07/10 03:06:50;;;;;;;5.83;4.60;;;;;;;18.66;70.43;97359.16;5046583;28;20317;-78
2023/07/10 03:10:11;;;;;;;6.47;4.90;;;;;;;18.89;70.45;97370.59;5049824;28;20233;-81
2023/07/10 03:13:33;;;;;;;6.33;4.50;;;;;;;18.77;69.88;97342.63;5047360;28;20204;-79
2023/07/10 03:16:55;;;;;;;8.87;4.93;;;;;;;18.93;70.30;97373.81;5044663;28;20748;-84
2023/07/10 03:20:19;;;;;;;8.10;5.20;;;;;;;18.96;70.53;97382.31;5047762;28;20234;-82
2023/07/10 03:23:40;;;;;;;8.70;5.23;;;;;;;19.02;69.72;97352.97;5034313;28;20199;-80
2023/07/10 03:27:02;;;;;;;7.73;4.57;;;;;;;19.39;70.18;97387.88;5065324;28;20232;-81
2023/07/10 03:30:22;;;;;;;5.70;4.27;;;;;;;19.18;70.05;97373.69;5030577;28;20625;-83
2023/07/10 03:33:44;;;;;;;4.90;4.10;;;;;;;18.93;70.23;97384.31;5065394;28;20223;-81
2023/07/10 03:37:05;;;;;;;5.57;4.50;;;;;;;19.09;68.32;97385.72;5046666;28;20696;-80
2023/07/10 03:40:26;;;;;;;8.17;5.10;;;;;;;19.46;67.55;97402.22;5046528;28;20207;-79
2023/07/10 03:43:48;;;;;;;6.53;5.00;;;;;;;19.67;66.69;97403.22;5046302;28;20297;-80
2023/07/10 03:47:09;;;;;;;5.37;4.20;;;;;;;19.58;66.92;97409.16;5064827;28;20231;-81
2023/07/10 03:50:29;;;;;;;6.80;4.73;;;;;;;19.45;67.71;97400.53;5066568;28;20291;-80
2023/07/10 03:53:51;;;;;;;5.20;4.53;;;;;;;20.06;66.71;97404.56;5019638;28;20207;-81
2023/07/10 03:57:13;;;;;;;7.00;4.73;;;;;;;20.73;64.33;97395.66;5068336;28;20296;-82
2023/07/10 04:00:34;;;;;;;7.60;4.53;;;;;;;21.22;63.29;97418.03;5050375;28;20244;-81
2023/07/10 04:03:59;;;;;;;6.63;4.50;;;;;;;21.36;62.32;97420.34;5009357;28;20350;-81
2023/07/10 04:07:20;;;;;;;8.17;5.03;;;;;;;21.53;61.92;97427.72;5040642;28;20375;-78
2023/07/10 04:10:42;;;;;;;5.63;4.83;;;;;;;21.66;61.35;97416.00;5026873;28;20251;-83
2023/07/10 04:14:05;;;;;;;7.77;4.97;;;;;;;22.00;60.63;97427.22;5038469;28;20702;-84
2023/07/10 04:17:27;;;;;;;5.50;4.57;;;;;;;22.28;60.54;97423.84;5019273;28;20548;-83
2023/07/10 04:20:40;;;;;;;6.17;4.13;;;;;;;22.09;61.24;97428.22;5031942;28;20191;-83
2023/07/10 04:24:04;;;;;;;4.73;4.17;;;;;;;22.00;61.86;97427.22;5035327;28;20203;-82
2023/07/10 04:27:25;;;;;;;5.17;4.57;;;;;;;21.99;61.45;97414.97;5013502;28;20234;-82
2023/07/10 04:30:48;;;;;;;5.60;4.63;;;;;;;22.00;61.22;97399.97;5025459;28;20587;-84
2023/07/10 04:34:11;;;;;;;6.70;4.47;;;;;;;22.20;61.30;97423.69;5058430;28;20200;-83
2023/07/10 04:37:33;;;;;;;5.40;4.63;;;;;;;22.27;60.46;97419.56;5015520;28;20262;-81
2023/07/10 04:40:55;;;;;;;7.90;4.33;;;;;;;22.67;58.89;97410.84;5029510;28;20211;-79
2023/07/10 04:44:16;;;;;;;5.47;4.40;;;;;;;22.61;58.77;97418.31;5047998;28;20290;-84
2023/07/10 04:47:37;;;;;;;7.67;4.70;;;;;;;22.61;59.42;97417.47;5047408;28;20588;-83
2023/07/10 04:50:45;;;;;;;6.40;4.53;;;;;;;22.81;59.26;97413.91;5029734;28;20236;-81
2023/07/10 04:53:57;;;;;;;5.80;4.37;;;;;;;23.07;59.01;97424.78;5030237;28;20707;-83
2023/07/10 04:57:17;;;;;;;6.30;4.37;;;;;;;23.11;57.98;97421.75;5031838;28;20239;-84
2023/07/10 05:00:38;;;;;;;6.27;4.63;;;;;;;23.21;57.86;97390.03;5046436;28;20193;-79
2023/07/10 05:03:59;;;;;;;7.67;4.73;;;;;;;23.90;56.91;97428.53;5014968;28;20639;-81
2023/07/10 05:07:22;;;;;;;5.70;4.63;;;;;;;23.90;56.40;97422.41;5031246;28;20385;-81
2023/07/10 05:10:43;;;;;;;6.80;4.57;;;;;;;23.76;56.71;97402.50;5028731;28;20210;-81
2023/07/10 05:14:05;;;;;;;6.00;5.17;;;;;;;23.80;57.69;97435.63;5047354;28;20199;-79
2023/07/10 05:17:26;;;;;;;6.17;4.70;;;;;;;23.91;57.47;97430.19;5031513;28;20202;-79
2023/07/10 05:20:48;;;;;;;4.73;4.00;;;;;;;24.17;55.58;97430.44;5014017;28;20287;-82
2023/07/10 05:24:09;;;;;;;7.40;4.33;;;;;;;24.59;55.79;97433.44;5045639;28;20768;-83
2023/07/10 05:27:58;;;;;;;4.80;4.37;;;;;;;25.13;54.02;97429.94;5041097;28;20266;-81
2023/07/10 05:31:20;;;;;;;7.13;4.57;;;;;;;25.21;55.88;97435.34;5043224;28;20285;-82
2023/07/10 05:34:41;;;;;;;5.90;4.50;;;;;;;25.46;54.68;97430.16;5066202;28;20691;-80
2023/07/10 05:38:02;;;;;;;6.03;4.23;;;;;;;25.65;54.38;97430.00;5066014;28;20209;-80
2023/07/10 05:41:22;;;;;;;5.90;4.50;;;;;;;25.70;54.12;97417.06;5031847;28;20197;-79
2023/07/10 05:44:43;;;;;;;8.00;4.77;;;;;;;25.86;53.63;97434.13;5066549;28;20213;-79
2023/07/10 05:48:04;;;;;;;6.10;5.03;;;;;;;25.93;53.22;97438.63;5047714;28;20197;-80
2023/07/10 05:51:25;;;;;;;8.37;5.67;;;;;;;26.11;53.62;97420.84;5047785;28;20198;-81
2023/07/10 05:54:46;;;;;;;5.97;4.97;;;;;;;26.28;53.37;97443.03;5066037;28;20197;-80
2023/07/10 05:58:09;;;;;;;7.10;5.20;;;;;;;26.45;52.61;97402.28;5048218;28;20231;-81
2023/07/10 06:01:31;;;;;;;7.37;4.70;;;;;;;26.67;52.58;97435.44;5026182;28;20578;-81
2023/07/10 06:04:55;;;;;;;6.77;5.00;;;;;;;26.24;53.87;97431.06;5055135;28;20260;-81
2023/07/10 06:08:16;;;;;;;9.37;5.57;;;;;;;26.70;53.14;97438.59;5027032;28;20290;-79
2023/07/10 06:11:38;;;;;;;7.27;5.17;;;;;;;27.27;52.12;97439.59;5034694;28;20226;-82
2023/07/10 06:15:00;;;;;;;6.97;5.17;;;;;;;27.25;51.95;97434.47;4999287;28;20202;-82
2023/07/10 06:18:22;;;;;;;6.30;4.80;;;;;;;27.19;51.35;97434.28;5014166;28;20205;-79
2023/07/10 06:21:44;;;;;;;5.03;4.50;;;;;;;27.34;50.49;97422.88;5026955;28;20194;-79
2023/07/10 06:25:05;;;;;;;7.23;5.23;;;;;;;27.67;50.21;97417.56;5045093;28;20221;-78
2023/07/10 06:28:26;;;;;;;6.90;4.37;;;;;;;28.01;50.04;97415.53;5026615;28;20213;-78
2023/07/10 06:31:48;;;;;;;7.07;4.70;;;;;;;27.93;49.40;97405.72;5030296;28;20545;-81
2023/07/10 06:35:13;;;;;;;9.50;5.00;;;;;;;27.81;49.33;97360.97;5044949;28;20299;-81
2023/07/10 06:38:33;;;;;;;5.57;4.40;;;;;;;28.06;48.51;97411.41;5012477;28;20231;-81
2023/07/10 06:41:54;;;;;;;7.73;4.80;;;;;;;27.97;48.27;97414.22;5028635;28;20212;-81
2023/07/10 06:45:16;;;;;;;7.60;4.50;;;;;;;28.38;48.05;97409.66;5027360;28;20213;-80
2023/07/10 06:48:39;;;;;;;11.73;5.00;;;;;;;28.60;46.89;97409.75;5045052;28;20284;-81
2023/07/10 06:52:02;;;;;;;7.00;4.90;;;;;;;28.76;46.17;97423.03;5045278;28;20230;-81
2023/07/10 06:55:22;;;;;;;6.77;4.07;;;;;;;28.70;45.26;97418.38;5026278;28;20648;-81
2023/07/10 06:57:55;;;;;;;7.00;4.97;;;;;;;28.66;45.86;97424.22;5008864;28;20197;-79
2023/07/10 07:00:25;;;;;;;6.53;4.80;;;;;;;28.69;45.77;97424.69;5027523;28;20205;-80
2023/07/10 07:03:38;;;;;;;7.00;4.83;;;;;;;29.10;44.49;97419.19;5043336;28;20205;-80
2023/07/10 07:07:24;;;;;;;5.00;4.50;;;;;;;28.62;45.24;97350.94;5005867;28;20230;-79
2023/07/10 07:10:46;;;;;;;4.63;3.87;;;;;;;28.26;44.11;97309.75;5007094;28;20194;-81
2023/07/10 07:14:21;;;;;;;12.27;4.90;;;;;;;29.07;43.58;97424.84;5024684;28;20209;-79
2023/07/10 07:17:46;;;;;;;5.83;3.80;;;;;;;29.32;43.46;97427.22;4994140;28;20285;-80
2023/07/10 07:21:13;;;;;;;4.50;4.10;;;;;;;29.11;42.86;97389.66;5006942;28;20198;-78
2023/07/10 07:24:34;;;;;;;4.60;3.87;;;;;;;29.53;43.21;97416.72;4990920;28;20206;-78
2023/07/10 07:27:59;;;;;;;5.03;4.40;;;;;;;29.48;42.44;97408.44;4993527;28;20231;-79
2023/07/10 07:31:20;;;;;;;5.63;3.93;;;;;;;29.37;41.76;97406.16;4995926;28;20590;-81
2023/07/10 07:34:42;;;;;;;4.60;3.70;;;;;;;29.14;41.08;97386.59;5025396;28;20292;-82
2023/07/10 07:38:03;;;;;;;5.27;3.73;;;;;;;29.46;41.39;97410.44;5028018;28;20205;-81
2023/07/10 07:41:26;;;;;;;4.63;3.40;;;;;;;29.40;40.22;97419.16;5047987;28;20614;-80
2023/07/10 07:44:49;;;;;;;6.47;3.77;;;;;;;29.60;40.25;97412.31;5012701;28;20198;-80
2023/07/10 07:47:52;;;;;;;3.23;2.93;;;;;;;29.45;39.59;97386.59;5045126;28;20627;-82
2023/07/10 07:51:00;;;;;;;4.13;3.50;;;;;;;29.57;41.37;97387.84;4997983;28;20209;-80
2023/07/10 07:54:22;;;;;;;5.57;3.57;;;;;;;29.66;38.93;97386.75;5010633;28;20210;-81
2023/07/10 07:57:41;;;;;;;7.13;4.23;;;;;;;29.99;38.52;97403.31;5011888;28;20713;-82
2023/07/10 08:00:22;;;;;;;6.33;3.77;;;;;;;29.75;39.80;97391.03;5004030;28;20311;-81
2023/07/10 08:03:38;;;;;;;9.87;3.67;;;;;;;29.79;38.85;97396.84;5037448;28;20646;-83
2023/07/10 08:07:01;;;;;;;3.83;3.43;;;;;;;29.73;39.46;97385.06;5062005;28;20244;-79
2023/07/10 08:10:23;;;;;;;5.73;3.93;;;;;;;29.60;39.06;97368.78;5047168;28;20200;-81
2023/07/10 08:13:45;;;;;;;4.00;3.60;;;;;;;29.55;39.55;97381.84;5040878;28;20644;-79
2023/07/10 08:17:05;;;;;;;6.80;4.47;;;;;;;29.29;39.83;97365.34;5042916;28;20631;-78
2023/07/10 08:20:27;;;;;;;8.43;4.37;;;;;;;29.14;40.26;97369.78;5055856;28;20200;-82
2023/07/10 08:23:47;;;;;;;5.00;3.60;;;;;;;29.27;39.86;97365.53;5063491;28;20736;-82
2023/07/10 08:27:09;;;;;;;4.27;3.20;;;;;;;29.40;40.23;97368.44;5059203;28;20232;-84
2023/07/10 08:29:50;;;;;;;5.73;3.63;;;;;;;29.49;40.06;97356.69;5055157;28;20198;-80
2023/07/10 08:33:02;;;;;;;4.13;3.57;;;;;;;29.72;39.44;97353.97;5010613;28;20200;-83
2023/07/10 08:36:32;;;;;;;4.50;3.10;;;;;;;29.39;39.59;97350.75;5006776;28;20196;-80
2023/07/10 08:39:54;;;;;;;3.90;3.50;;;;;;;29.33;39.78;97356.81;5032968;28;20201;-81
2023/07/10 08:43:16;;;;;;;3.53;3.13;;;;;;;28.93;39.60;97349.09;5038816;28;20190;-82
2023/07/10 08:46:46;;;;;;;5.63;2.70;;;;;;;29.03;39.21;97364.84;5043245;28;20307;-81
2023/07/10 08:50:10;;;;;;;3.57;3.13;;;;;;;29.13;39.49;97360.13;5067165;28;20291;-82
2023/07/10 08:53:47;;;;;;;3.77;3.40;;;;;;;29.04;38.28;97370.00;5033160;28;20303;-80
2023/07/10 08:56:54;;;;;;;6.57;3.60;;;;;;;29.11;37.96;97362.13;5031444;28;20271;-81
2023/07/10 09:00:04;;;;;;;3.17;2.87;;;;;;;29.47;37.39;97369.38;5028351;28;20197;-81
2023/07/10 09:03:35;;;;;;;4.77;2.40;;;;;;;29.37;36.35;97358.13;5028928;28;20243;-82
2023/07/10 09:07:12;;;;;;;3.33;2.50;;;;;;;29.02;36.69;97364.03;5063452;28;20221;-81
2023/07/10 09:10:47;;;;;;;4.17;3.10;;;;;;;29.35;37.15;97367.31;5067785;28;20263;-77
2023/07/10 09:14:13;;;;;;;2.87;2.67;;;;;;;29.45;35.17;97362.59;5031219;28;20655;-79
2023/07/10 09:17:35;;;;;;;3.90;2.77;;;;;;;29.23;35.56;97344.72;5051160;28;20205;-83
2023/07/10 09:20:57;;;;;;;3.03;2.67;;;;;;;28.71;37.90;97345.38;5047928;28;20282;-82
2023/07/10 09:24:22;;;;;;;3.00;2.77;;;;;;;29.01;37.90;97364.19;5066714;28;20212;-84
2023/07/10 09:27:49;;;;;;;4.60;3.00;;;;;;;28.97;37.45;97347.72;5066027;28;20308;-83
2023/07/10 09:30:55;;;;;;;2.87;2.40;;;;;;;29.10;36.41;97363.97;5048156;28;20205;-82
2023/07/10 09:34:21;;;;;;;4.07;2.80;;;;;;;29.22;36.41;97348.41;5066337;28;20215;-84
2023/07/10 09:37:51;;;;;;;3.97;2.90;;;;;;;29.52;36.24;97347.50;5067038;28;20208;-79
2023/07/10 09:41:21;;;;;;;4.97;3.20;;;;;;;29.79;36.17;97365.63;5033984;28;20255;-80
2023/07/10 09:45:04;;;;;;;3.40;2.70;;;;;;;29.38;36.42;97348.28;5047830;28;20295;-81
2023/07/10 09:48:32;;;;;;;3.10;2.80;;;;;;;29.40;37.56;97357.78;5029597;28;20223;-79
2023/07/10 09:51:56;;;;;;;4.63;3.27;;;;;;;29.05;38.90;97355.69;5028320;28;20225;-80
2023/07/10 09:55:19;;;;;;;4.17;2.73;;;;;;;29.15;37.98;97358.97;5051616;28;20193;-81
2023/07/10 09:58:46;;;;;;;5.17;2.90;;;;;;;29.26;38.92;97344.38;5062922;28;20760;-84
2023/07/10 10:02:12;;;;;;;5.87;3.77;;;;;;;29.69;37.65;97352.50;5030926;28;20197;-81
2023/07/10 10:05:43;;;;;;;3.53;2.20;;;;;;;29.48;37.17;97343.53;5031638;28;20799;-78
2023/07/10 10:09:10;;;;;;;4.43;3.00;;;;;;;29.13;37.17;97349.44;5065878;28;20193;-79
2023/07/10 10:12:42;;;;;;;2.90;2.60;;;;;;;28.73;39.19;97330.03;5049027;28;20201;-79
2023/07/10 10:16:19;;;;;;;3.43;3.07;;;;;;;29.24;39.35;97351.75;4995747;28;20216;-80
2023/07/10 10:19:52;;;;;;;3.30;3.00;;;;;;;28.89;39.56;97343.25;5030335;28;20205;-85
2023/07/10 10:27:00;;;;;;;2.73;2.50;;;;;;;29.57;36.43;97353.13;5043977;28;20233;-79
2023/07/10 10:30:15;;;;;;;3.07;2.50;;;;;;;29.39;36.85;97341.91;5044185;28;20276;-85
2023/07/10 10:33:03;;;;;;;4.87;3.10;;;;;;;29.63;37.99;97336.38;5027193;28;20202;-83
2023/07/10 10:36:35;;;;;;;4.27;3.00;;;;;;;29.79;37.35;97312.22;5028370;28;20759;-80
2023/07/10 10:40:03;;;;;;;7.27;3.40;;;;;;;30.15;35.31;97341.72;5036294;28;20229;-80
2023/07/10 10:43:39;;;;;;;3.60;3.00;;;;;;;29.29;39.17;97342.19;5016713;28;20307;-80
2023/07/10 10:47:06;;;;;;;3.80;2.83;;;;;;;28.94;39.10;97337.41;5047660;28;20237;-80
2023/07/10 10:50:09;;;;;;;4.93;2.80;;;;;;;29.03;39.58;97319.50;5046796;28;20208;-80
2023/07/10 10:53:30;;;;;;;3.10;2.80;;;;;;;28.99;39.35;97329.72;5046413;28;20199;-82
2023/07/10 10:57:03;;;;;;;3.67;2.97;;;;;;;28.83;38.82;97327.97;5028150;28;20223;-81
2023/07/10 10:59:54;;;;;;;3.57;2.70;;;;;;;29.24;36.88;97325.06;5067031;28;20590;-81
2023/07/10 11:03:14;;;;;;;3.73;2.77;;;;;;;29.18;38.20;97315.91;5034634;28;20201;-84
2023/07/10 11:06:28;;;;;;;3.20;2.70;;;;;;;29.07;38.08;97323.47;5050635;28;20248;-83
2023/07/10 11:10:12;;;;;;;3.67;2.73;;;;;;;29.10;37.96;97297.25;5066588;28;20267;-81
2023/07/10 11:13:40;;;;;;;3.77;2.83;;;;;;;28.82;38.49;97307.66;5053120;28;20265;-79
2023/07/10 11:17:04;;;;;;;3.00;2.17;;;;;;;28.38;38.34;97271.91;5046379;28;20200;-79
2023/07/10 11:20:27;;;;;;;2.70;2.50;;;;;;;28.93;37.89;97314.41;5068286;28;20190;-80
2023/07/10 11:23:28;;;;;;;2.70;2.50;;;;;;;28.24;38.27;97163.41;5035051;28;20600;-81
2023/07/10 11:27:00;;;;;;;3.40;3.10;;;;;;;29.81;36.20;97312.03;5049913;28;20231;-83
2023/07/10 11:30:30;;;;;;;3.60;2.90;;;;;;;29.62;35.51;97267.97;5034207;28;20213;-83
2023/07/10 11:33:55;;;;;;;2.80;2.60;;;;;;;29.38;37.17;97302.91;5068682;28;20231;-83
2023/07/10 11:37:17;;;;;;;3.30;2.40;;;;;;;29.54;35.31;97300.91;5067405;28;20203;-83
2023/07/10 11:40:23;;;;;;;3.03;2.30;;;;;;;29.34;35.65;97298.94;5049820;28;20235;-79
2023/07/10 11:43:24;;;;;;;2.57;2.37;;;;;;;29.46;34.85;97290.31;5049743;28;20200;-82
2023/07/10 11:46:54;;;;;;;2.63;2.43;;;;;;;29.84;35.33;97272.44;5036562;28;20239;-84
2023/07/10 11:50:25;;;;;;;4.93;3.03;;;;;;;29.79;35.84;97293.53;5050396;28;20250;-79
2023/07/10 11:53:46;;;;;;;2.90;2.57;;;;;;;29.96;34.94;97289.66;5033258;28;20589;-82
2023/07/10 11:57:20;;;;;;;4.27;3.00;;;;;;;30.09;34.55;97295.16;5068018;28;20193;-80
2023/07/10 12:00:15;;;;;;;2.73;2.50;;;;;;;30.08;34.90;97288.19;5011004;28;20208;-81
2023/07/10 12:03:45;;;;;;;4.53;2.33;;;;;;;29.24;36.38;97248.50;5051524;28;20204;-80
2023/07/10 12:07:10;;;;;;;3.03;2.50;;;;;;;29.40;35.16;97295.56;5034592;28;20225;-84
2023/07/10 12:10:33;;;;;;;2.53;2.33;;;;;;;29.29;35.88;97294.13;5048963;28;20197;-82
2023/07/10 12:14:13;;;;;;;3.40;2.80;;;;;;;29.44;36.74;97273.66;5068352;28;20212;-82
2023/07/10 12:18:03;;;;;;;3.33;2.80;;;;;;;29.44;37.95;97270.16;5057616;28;20246;-83
2023/07/10 12:21:30;;;;;;;3.17;2.87;;;;;;;29.47;38.95;97280.47;5050181;28;20224;-80
2023/07/10 12:24:57;;;;;;;5.93;2.97;;;;;;;29.76;36.98;97280.53;5066381;28;20275;-83
2023/07/10 12:28:23;;;;;;;3.83;2.70;;;;;;;29.78;37.04;97257.13;5026498;28;20209;-79
2023/07/10 12:31:45;;;;;;;4.37;2.83;;;;;;;30.22;34.67;97273.97;5049473;28;20211;-81
2023/07/10 12:35:09;;;;;;;2.70;2.50;;;;;;;30.00;36.01;97290.94;5030293;28;20494;-81
2023/07/10 12:38:35;;;;;;;2.77;2.57;;;;;;;29.80;36.12;97257.78;5015893;28;20205;-82
2023/07/10 12:41:57;;;;;;;3.17;2.70;;;;;;;29.78;37.34;97259.81;5047056;28;20201;-80
2023/07/10 12:45:27;;;;;;;4.60;2.90;;;;;;;29.69;38.71;97275.06;5029278;28;20194;-80
2023/07/10 12:48:50;;;;;;;3.87;3.03;;;;;;;29.39;38.17;97267.19;5029137;28;20205;-79
2023/07/10 12:52:15;;;;;;;3.07;2.60;;;;;;;29.56;38.06;97240.16;5014701;28;20233;-81
2023/07/10 12:55:36;;;;;;;2.90;2.70;;;;;;;29.24;38.57;97259.19;4998162;28;20198;-85
2023/07/10 12:58:59;;;;;;;3.33;3.00;;;;;;;29.56;39.12;97250.84;5012287;28;20240;-81
2023/07/10 13:02:34;;;;;;;3.60;3.27;;;;;;;29.74;36.85;97250.50;5048605;28;20663;-80
2023/07/10 13:05:59;;;;;;;5.73;3.33;;;;;;;29.86;38.28;97249.06;5030721;28;20706;-82
2023/07/10 13:13:15;;;;;;;3.30;3.00;;;;;;;29.27;38.03;97228.63;5015158;28;20226;-81
2023/07/10 13:16:39;;;;;;;4.40;3.07;;;;;;;29.58;37.04;97231.97;5023709;28;20230;-84
2023/07/10 13:20:03;;;;;;;5.23;2.90;;;;;;;29.25;37.74;97214.63;5005161;28;20267;-78
2023/07/10 13:23:26;;;;;;;3.33;3.03;;;;;;;29.58;37.38;97214.13;5016496;28;20201;-79
2023/07/10 13:26:49;;;;;;;4.80;2.90;;;;;;;29.78;38.10;97230.44;5011082;28;20616;-82
2023/07/10 13:30:11;;;;;;;3.47;3.17;;;;;;;30.14;35.61;97228.66;5045652;28;20216;-80
2023/07/10 13:33:44;;;;;;;3.87;3.40;;;;;;;29.91;36.97;97233.28;5027966;28;20202;-83
2023/07/10 13:37:05;;;;;;;5.50;3.30;;;;;;;29.99;35.44;97227.84;5025247;28;20391;-79
2023/07/10 13:40:34;;;;;;;4.00;3.33;;;;;;;29.82;37.26;97222.91;5030954;28;20617;-77
2023/07/10 13:43:20;;;;;;;3.20;2.90;;;;;;;29.57;37.73;97215.09;5026118;28;20208;-82
2023/07/10 13:46:40;;;;;;;3.17;2.87;;;;;;;29.94;36.95;97224.06;4992315;28;20729;-80
2023/07/10 13:50:02;;;;;;;4.67;3.80;;;;;;;29.75;36.61;97225.47;5025690;28;20686;-81
2023/07/10 13:53:28;;;;;;;5.37;3.40;;;;;;;29.80;36.88;97233.75;5008523;28;20200;-81
2023/07/10 13:57:02;;;;;;;9.83;4.00;;;;;;;29.63;36.84;97209.06;5008130;28;20531;-79
2023/07/10 14:00:24;;;;;;;4.37;3.23;;;;;;;29.47;35.91;97232.44;4990890;28;20206;-79
2023/07/10 14:03:46;;;;;;;3.83;3.10;;;;;;;29.70;35.93;97220.66;5009177;28;20210;-81
2023/07/10 14:07:08;;;;;;;3.77;3.13;;;;;;;29.86;36.44;97230.34;5029390;28;20309;-81
2023/07/10 14:10:32;;;;;;;3.93;3.07;;;;;;;29.85;36.68;97244.72;5029648;28;20708;-80
2023/07/10 14:13:56;;;;;;;4.73;3.30;;;;;;;29.50;38.02;97210.69;5049734;28;20220;-81
2023/07/10 14:17:22;;;;;;;4.33;3.13;;;;;;;29.86;35.88;97230.34;5044608;28;20246;-80
2023/07/10 14:20:20;;;;;;;3.67;3.37;;;;;;;29.48;36.73;97183.38;5049676;28;20228;-81
2023/07/10 14:23:15;;;;;;;3.10;2.90;;;;;;;29.47;38.07;97219.91;5032981;28;20262;-80
2023/07/10 14:26:24;;;;;;;4.23;3.43;;;;;;;29.29;37.63;97216.75;5047587;28;20333;-79
2023/07/10 14:29:45;;;;;;;3.63;3.30;;;;;;;29.48;38.43;97220.72;5064263;28;20207;-80
2023/07/10 14:33:06;;;;;;;4.40;3.43;;;;;;;29.42;37.39;97218.78;5030579;28;20696;-79
2023/07/10 14:36:33;;;;;;;3.60;3.30;;;;;;;29.46;37.49;97217.41;5046491;28;20225;-83
2023/07/10 14:39:54;;;;;;;3.60;3.30;;;;;;;29.65;36.55;97228.41;5042226;28;20201;-80
2023/07/10 14:43:22;;;;;;;3.57;3.00;;;;;;;28.92;37.35;97220.25;5060063;28;20212;-78
2023/07/10 14:46:45;;;;;;;4.37;3.90;;;;;;;29.22;36.01;97231.03;5049307;28;20751;-80
2023/07/10 14:50:11;;;;;;;3.43;3.13;;;;;;;29.12;36.02;97212.53;5063903;28;20240;-80
2023/07/10 14:53:32;;;;;;;3.40;2.97;;;;;;;29.22;36.80;97215.84;5064971;28;20246;-80
2023/07/10 14:56:56;;;;;;;3.17;2.87;;;;;;;29.06;36.59;97201.78;5046957;28;20205;-81
2023/07/10 15:00:18;;;;;;;4.27;3.53;;;;;;;29.10;36.61;97211.91;5031889;28;20685;-79
2023/07/10 15:03:43;;;;;;;3.97;3.63;;;;;;;29.06;37.81;97215.13;5049433;28;20220;-81
2023/07/10 15:07:08;;;;;;;3.40;3.10;;;;;;;28.93;37.32;97200.53;5046179;28;20744;-82
2023/07/10 15:11:00;;;;;;;3.50;3.20;;;;;;;29.01;37.52;97209.50;5035011;28;20243;-79
2023/07/10 15:14:22;;;;;;;4.33;3.33;;;;;;;28.78;38.63;97205.03;5048734;28;20197;-81
2023/07/10 15:17:47;;;;;;;5.07;3.50;;;;;;;29.07;38.09;97214.09;5045806;28;20276;-79
2023/07/10 15:21:10;;;;;;;4.20;3.70;;;;;;;29.04;38.89;97207.28;5045767;28;20193;-80
2023/07/10 15:24:41;;;;;;;3.93;3.53;;;;;;;28.98;38.70;97216.84;5029835;28;20198;-79
2023/07/10 15:28:02;;;;;;;4.83;3.40;;;;;;;28.98;39.18;97216.84;5047081;28;20306;-84
2023/07/10 15:31:23;;;;;;;4.60;3.60;;;;;;;28.69;40.01;97200.75;5063989;28;20288;-82
2023/07/10 15:34:49;;;;;;;4.10;3.70;;;;;;;28.63;40.58;97196.16;5045937;28;20198;-80
2023/07/10 15:38:18;;;;;;;4.60;3.70;;;;;;;28.45;40.99;97198.25;5064154;28;20426;-81
2023/07/10 15:41:40;;;;;;;5.13;3.67;;;;;;;28.42;40.98;97198.59;5047225;28;20719;-83
2023/07/10 15:45:02;;;;;;;4.00;3.57;;;;;;;28.44;41.18;97199.25;5048118;28;20208;-80
2023/07/10 15:48:24;;;;;;;3.90;3.60;;;;;;;28.54;41.14;97197.16;5053044;28;20309;-80
2023/07/10 15:51:47;;;;;;;4.20;3.60;;;;;;;28.37;40.79;97181.47;5068402;28;20281;-82
2023/07/10 15:55:13;;;;;;;4.50;4.10;;;;;;;28.32;40.02;97199.81;5031926;28;20194;-82
2023/07/10 15:58:36;;;;;;;5.20;3.70;;;;;;;28.38;39.07;97194.63;5068694;28;20319;-80